OIKQ  Dayrestan Airport

Add Bookmark

Iran

Status
Operational
Latitude Longitude
26° 45' 16" N 55° 54' 8" E
26.754601 55.902401
Local (DST + 5) UTC (GMT + 4)
Aug 29, 2014 03:44 Aug 28, 2014 23:14
Sunrise-Sunset Local UTC
Begin Civil Twilight 05:59 01:29
Sunrise 06:23 01:53
Sunset 07:11 14:41
End Civil Twilight 07:34 15:04

Current Weather

METAR Observed MVFR
OIKQ 282100Z 07016KT 6000 NSC 33/25 Q1001 Thu, Aug 28, 2014 @ 21:00 UTC
(2 Hours, 14 Minutes ago)
Marginal Visual Flight Rules
Wind Visibility Clouds Conditions
070° at 16 knots (30 kph) 6000 meters
  • Clear skies
  • No significant weather
Temperatures Readings Precipitation
Current Temp 33°C (91°F)
Dewpoint 25°C (77°F)
Heat Index 40°C (104°F)
Humidity 63%
Altimeter 29.56"Hg
Sea Level Pressure 1001mb
Field Elevation 39.37'
None Recorded

Additional weather within a 92.6km radius of OIKQ

Map ICAO Location
OIKB 69.8km N (042°)

24 Hour Weather History

Loading
-

24 Hour Weather Graphs

Loading
-

CheckWX.com is intended as a tool to help pilots better visualize weather data. It is not intended as a substitute for an official weather briefing obtained from a Flight Service Station. CheckWX.com does not meet the FAA requirements for an official pre-flight weather briefing. Therefore, it's important that pilots still call and obtain an official FSS pre-flight weather briefing.